Time;durP1;ratioP1;P1;durP2;ratioP2;P2;SDS_P1;SDS_P2;PMS_P1;PMS_P2;Temp;Humidity;BMP_temperature;BMP_pressure;BME280_temperature;BME280_humidity;BME280_pressure;Samples;Min_cycle;Max_cycle;Signal;HPM_P1;HPM_P2
2022/03/24 00:00:48;;;;;;;28.25;13.82;;;;;;;5.92;51.90;102537.09;5093838;28;20445;-76
2022/03/24 00:03:14;;;;;;;29.73;15.35;;;;;;;5.92;51.62;102537.97;5098877;27;20048;-78
2022/03/24 00:05:41;;;;;;;34.55;14.82;;;;;;;5.54;52.52;102534.59;5094006;28;20155;-77
2022/03/24 00:08:08;;;;;;;29.52;14.50;;;;;;;5.34;53.47;102530.28;5094413;28;20118;-76
2022/03/24 00:10:35;;;;;;;28.38;14.52;;;;;;;5.27;53.85;102522.50;5088300;28;20108;-76
2022/03/24 00:13:03;;;;;;;27.77;14.02;;;;;;;5.11;54.31;102546.78;5094507;28;20044;-77
2022/03/24 00:15:30;;;;;;;29.17;14.70;;;;;;;5.23;53.95;102533.78;5093251;28;20044;-77
2022/03/24 00:17:56;;;;;;;25.95;14.43;;;;;;;5.27;53.82;102540.72;5095187;28;20048;-77
2022/03/24 00:20:25;;;;;;;26.67;14.52;;;;;;;5.33;53.54;102535.50;5088415;28;20109;-77
2022/03/24 00:22:52;;;;;;;29.80;14.57;;;;;;;5.19;54.05;102532.03;5090665;28;20525;-77
2022/03/24 00:25:19;;;;;;;26.70;13.55;;;;;;;5.12;54.09;102528.59;5085574;28;20124;-76
2022/03/24 00:27:45;;;;;;;26.85;14.13;;;;;;;5.20;53.85;102529.47;5090749;28;20483;-77
2022/03/24 00:30:13;;;;;;;24.20;13.68;;;;;;;5.14;54.07;102537.25;5089507;28;20423;-77
2022/03/24 00:32:40;;;;;;;34.47;14.60;;;;;;;5.20;53.93;102534.66;5095155;28;20435;-77
2022/03/24 00:35:08;;;;;;;30.70;14.63;;;;;;;5.35;53.45;102529.44;5094972;27;20044;-77
2022/03/24 00:37:34;;;;;;;29.13;14.52;;;;;;;5.42;53.33;102529.41;5095166;28;20089;-77
2022/03/24 00:40:06;;;;;;;28.40;15.18;;;;;;;5.42;53.28;102527.69;5093402;27;20581;-77
2022/03/24 00:42:33;;;;;;;26.95;13.77;;;;;;;5.45;53.17;102526.81;5095193;28;20066;-76
2022/03/24 00:45:00;;;;;;;32.13;15.23;;;;;;;5.54;52.61;102525.06;5094820;28;20040;-77
2022/03/24 00:47:28;;;;;;;32.40;15.32;;;;;;;5.39;52.89;102518.13;5094833;28;20574;-76
2022/03/24 00:49:55;;;;;;;26.60;13.82;;;;;;;5.02;54.12;102515.59;5090728;28;20539;-77
2022/03/24 00:52:21;;;;;;;29.40;15.13;;;;;;;4.85;54.64;102531.19;5089326;28;20415;-77
2022/03/24 00:54:47;;;;;;;28.13;14.50;;;;;;;4.73;55.21;102521.66;5095388;28;20044;-76
2022/03/24 00:57:14;;;;;;;30.35;15.20;;;;;;;4.84;54.96;102519.91;5080076;28;20102;-77
2022/03/24 00:59:41;;;;;;;34.13;15.00;;;;;;;4.83;55.10;102522.53;5071571;28;20048;-77
2022/03/24 01:02:09;;;;;;;31.65;15.07;;;;;;;4.34;56.19;102524.19;5093290;28;20221;-77
2022/03/24 01:04:37;;;;;;;26.80;13.40;;;;;;;4.24;56.34;102527.66;5079626;28;20124;-76
2022/03/24 01:07:04;;;;;;;32.13;15.15;;;;;;;3.83;58.13;102527.50;5071694;28;20044;-76
2022/03/24 01:09:31;;;;;;;34.80;16.10;;;;;;;4.06;57.70;102530.19;5080151;28;20098;-76
2022/03/24 01:11:57;;;;;;;28.75;14.20;;;;;;;4.10;57.56;102529.34;5091192;28;20048;-77
2022/03/24 01:14:25;;;;;;;36.58;15.88;;;;;;;4.09;57.48;102531.06;5091304;28;20462;-77
2022/03/24 01:16:51;;;;;;;35.00;14.85;;;;;;;3.97;57.83;102530.13;5091199;28;20051;-77
2022/03/24 01:19:18;;;;;;;26.88;14.70;;;;;;;4.06;57.52;102532.78;5091119;28;20046;-76
2022/03/24 01:21:46;;;;;;;29.08;14.45;;;;;;;4.26;56.57;102536.28;5093756;28;20551;-76
2022/03/24 01:24:12;;;;;;;29.30;14.48;;;;;;;4.37;56.06;102532.88;5090807;28;20044;-76
2022/03/24 01:26:38;;;;;;;34.55;14.98;;;;;;;4.41;55.33;102528.53;5082597;28;20048;-76
2022/03/24 01:29:05;;;;;;;30.60;14.70;;;;;;;4.63;55.18;102525.13;5090531;28;20044;-76
2022/03/24 01:31:33;;;;;;;33.33;14.90;;;;;;;4.42;55.17;102527.69;5090818;28;20465;-76
2022/03/24 01:33:59;;;;;;;27.77;14.43;;;;;;;4.28;56.32;102529.38;5090998;28;20089;-76
2022/03/24 01:36:26;;;;;;;28.38;14.23;;;;;;;4.39;56.01;102525.97;5090987;28;20044;-76
2022/03/24 01:38:53;;;;;;;29.48;14.35;;;;;;;4.57;55.63;102521.66;5090100;28;20044;-76
2022/03/24 01:41:22;;;;;;;25.98;13.07;;;;;;;4.67;54.92;102521.66;5091572;28;20044;-76
2022/03/24 01:43:49;;;;;;;30.38;14.30;;;;;;;4.67;54.70;102511.25;5082441;28;20036;-76
2022/03/24 01:46:20;;;;;;;30.77;15.43;;;;;;;4.70;55.06;102524.25;5088780;28;20040;-76
2022/03/24 01:48:47;;;;;;;37.63;15.18;;;;;;;4.43;56.98;102523.38;5089728;28;20040;-76
2022/03/24 01:51:13;;;;;;;28.70;14.93;;;;;;;4.44;56.85;102525.94;5072724;28;20047;-77
2022/03/24 01:53:40;;;;;;;29.38;14.70;;;;;;;4.39;56.50;102517.28;5071553;28;20053;-77
2022/03/24 01:56:08;;;;;;;29.88;14.30;;;;;;;4.49;56.62;102513.84;5077271;28;20089;-76
2022/03/24 01:58:38;;;;;;;35.17;14.93;;;;;;;4.61;56.57;102516.47;5088805;28;20055;-77
2022/03/24 02:01:27;;;;;;;30.27;14.13;;;;;;;4.69;55.72;102508.69;5089172;28;20039;-77
2022/03/24 02:03:55;;;;;;;26.70;13.68;;;;;;;4.75;56.11;102514.75;5101812;28;20042;-77
2022/03/24 02:06:21;;;;;;;30.35;15.15;;;;;;;4.62;57.20;102501.75;5110712;28;20043;-77
2022/03/24 02:08:47;;;;;;;30.65;14.73;;;;;;;4.63;57.57;102504.31;5098235;28;20090;-77
2022/03/24 02:11:15;;;;;;;30.05;14.80;;;;;;;4.59;58.43;102512.09;5086111;28;20044;-77
2022/03/24 02:13:41;;;;;;;28.05;14.00;;;;;;;4.68;58.13;102509.53;5092017;28;20045;-77
2022/03/24 02:16:10;;;;;;;28.67;14.60;;;;;;;4.65;58.26;102506.94;5082117;28;20052;-77
2022/03/24 02:18:36;;;;;;;34.42;15.10;;;;;;;4.65;58.05;102513.00;5088006;28;20098;-76
2022/03/24 02:21:03;;;;;;;36.17;15.30;;;;;;;4.50;59.04;102502.59;5090436;28;20412;-77
2022/03/24 02:23:30;;;;;;;32.75;15.48;;;;;;;4.33;60.84;102506.88;5088767;28;20048;-77
2022/03/24 02:25:58;;;;;;;28.50;15.15;;;;;;;4.10;61.41;102508.56;5081454;28;20048;-77
2022/03/24 02:28:24;;;;;;;29.98;14.93;;;;;;;4.19;60.91;102501.66;5072807;28;20097;-77
2022/03/24 02:30:51;;;;;;;30.15;14.63;;;;;;;4.08;60.79;102503.34;5072578;28;20097;-77
2022/03/24 02:33:21;;;;;;;31.75;15.90;;;;;;;4.14;60.45;102502.53;5090120;28;20044;-76
2022/03/24 02:35:48;;;;;;;31.23;14.80;;;;;;;4.24;59.41;102507.75;5070334;28;20493;-76
2022/03/24 02:38:15;;;;;;;29.88;13.35;;;;;;;4.26;59.00;102500.81;5069775;28;20049;-76
2022/03/24 02:40:44;;;;;;;31.55;14.77;;;;;;;4.25;58.79;102506.00;5087663;28;20055;-76
2022/03/24 02:43:11;;;;;;;30.33;15.05;;;;;;;4.28;58.86;102500.81;5089337;28;20093;-77
2022/03/24 02:45:37;;;;;;;31.55;14.70;;;;;;;4.39;58.75;102496.53;5089044;28;20044;-77
2022/03/24 02:48:04;;;;;;;31.38;15.15;;;;;;;4.49;58.65;102499.97;5083357;28;20044;-76
2022/03/24 02:50:30;;;;;;;30.50;15.05;;;;;;;4.36;58.75;102499.13;5088100;28;20119;-76
2022/03/24 02:52:58;;;;;;;28.80;14.73;;;;;;;4.31;58.64;102498.22;5096551;28;20120;-76
2022/03/24 02:55:24;;;;;;;27.67;15.27;;;;;;;4.07;59.40;102504.22;5107170;28;20051;-76
2022/03/24 02:57:52;;;;;;;32.00;15.10;;;;;;;3.92;59.44;102507.63;5110385;28;20043;-76
2022/03/24 03:00:18;;;;;;;35.95;15.02;;;;;;;3.89;59.47;102499.84;5098616;28;20044;-76
2022/03/24 03:02:45;;;;;;;31.30;15.10;;;;;;;3.73;60.12;102500.63;5108808;28;20062;-76
2022/03/24 03:05:11;;;;;;;31.90;15.60;;;;;;;3.70;59.35;102502.34;5094380;28;20412;-76
2022/03/24 03:07:37;;;;;;;32.03;14.45;;;;;;;3.65;59.77;102502.34;5105859;28;20077;-76
2022/03/24 03:10:04;;;;;;;28.40;13.32;;;;;;;3.63;59.47;102500.56;5108248;27;20089;-76
2022/03/24 03:12:31;;;;;;;32.17;14.15;;;;;;;3.56;59.11;102499.69;5101112;28;20047;-76
2022/03/24 03:14:59;;;;;;;32.85;15.48;;;;;;;3.54;58.71;102506.59;5109313;28;20039;-76
2022/03/24 03:17:28;;;;;;;32.05;15.02;;;;;;;3.34;60.39;102500.44;5103081;28;20048;-76
2022/03/24 03:19:54;;;;;;;33.22;15.40;;;;;;;3.38;60.33;102502.19;5095990;28;20683;-76
2022/03/24 03:22:21;;;;;;;40.25;15.15;;;;;;;3.40;60.81;102497.84;5089679;28;20071;-76
2022/03/24 03:24:47;;;;;;;36.25;16.17;;;;;;;3.41;61.54;102502.19;5104686;28;20048;-76
2022/03/24 03:27:14;;;;;;;33.45;15.43;;;;;;;3.46;61.48;102505.69;5104507;28;20067;-76
2022/03/24 03:29:41;;;;;;;28.90;14.57;;;;;;;3.40;61.11;102510.81;5107851;28;20540;-76
2022/03/24 03:32:10;;;;;;;31.98;15.93;;;;;;;3.40;60.09;102503.03;5109075;28;20044;-76
2022/03/24 03:34:38;;;;;;;32.15;14.88;;;;;;;3.40;59.80;102508.22;5109031;28;20075;-76
2022/03/24 03:37:05;;;;;;;36.13;16.17;;;;;;;3.33;60.30;102504.75;5109693;28;20085;-76
2022/03/24 03:39:31;;;;;;;34.30;14.70;;;;;;;3.32;59.84;102509.94;5107231;28;20051;-76
2022/03/24 03:41:58;;;;;;;27.15;14.07;;;;;;;3.28;60.03;102508.19;5106507;28;20113;-76
2022/03/24 03:44:24;;;;;;;29.02;14.50;;;;;;;3.27;60.07;102511.63;5076435;28;20040;-76
2022/03/24 03:46:51;;;;;;;29.95;14.88;;;;;;;3.18;61.02;102515.00;5080929;28;20044;-76
2022/03/24 03:49:19;;;;;;;32.55;14.43;;;;;;;3.25;61.04;102515.94;5071964;28;20040;-76
2022/03/24 03:51:45;;;;;;;29.67;14.45;;;;;;;3.20;61.24;102502.94;5079969;28;20040;-76
2022/03/24 03:54:12;;;;;;;30.60;15.05;;;;;;;3.24;60.48;102507.28;5085989;28;20101;-76
2022/03/24 03:56:39;;;;;;;29.95;14.73;;;;;;;3.29;60.21;102502.97;5087587;28;20044;-76
2022/03/24 03:59:06;;;;;;;32.63;15.13;;;;;;;3.24;61.13;102504.69;5087164;28;20044;-76
2022/03/24 04:01:32;;;;;;;28.83;15.52;;;;;;;3.25;61.24;102508.16;5074386;28;20049;-76
2022/03/24 04:03:59;;;;;;;30.13;14.50;;;;;;;3.24;61.12;102503.81;5081729;28;20044;-76
2022/03/24 04:06:27;;;;;;;32.60;15.75;;;;;;;3.27;60.94;102503.84;5075613;28;20044;-76
2022/03/24 04:08:53;;;;;;;32.70;15.02;;;;;;;3.45;60.56;102511.72;5082208;28;20041;-76
2022/03/24 04:11:19;;;;;;;31.65;16.15;;;;;;;3.51;60.72;102516.09;5082829;28;20051;-76
2022/03/24 04:13:46;;;;;;;33.97;16.17;;;;;;;3.55;60.38;102510.91;5077333;28;20562;-76
2022/03/24 04:16:13;;;;;;;33.17;17.08;;;;;;;3.50;60.45;102506.56;5092071;28;20048;-76
2022/03/24 04:18:41;;;;;;;34.38;17.27;;;;;;;3.42;60.40;102509.13;5084569;28;20101;-76
2022/03/24 04:21:08;;;;;;;39.05;16.38;;;;;;;3.50;59.82;102507.44;5086860;28;20113;-76
2022/03/24 04:23:36;;;;;;;32.20;15.85;;;;;;;3.44;59.88;102512.56;5086885;28;20052;-76
2022/03/24 04:26:03;;;;;;;39.63;16.55;;;;;;;3.27;60.57;102506.44;5080017;28;20074;-76
2022/03/24 04:28:30;;;;;;;31.23;16.05;;;;;;;3.22;60.71;102500.34;5090108;28;20134;-76
2022/03/24 04:30:56;;;;;;;35.78;16.58;;;;;;;3.21;60.77;102499.50;5089619;28;20526;-76
2022/03/24 04:33:23;;;;;;;38.03;15.82;;;;;;;3.04;61.37;102505.41;5095117;28;20094;-76
2022/03/24 04:35:50;;;;;;;33.85;16.20;;;;;;;2.97;61.52;102499.31;5083266;28;20078;-76
2022/03/24 04:38:16;;;;;;;37.53;15.73;;;;;;;2.65;61.47;102505.97;5076154;28;20045;-76
2022/03/24 04:40:44;;;;;;;42.35;17.15;;;;;;;2.46;62.23;102504.91;5089652;28;20052;-76
2022/03/24 04:43:10;;;;;;;42.25;18.92;;;;;;;2.49;61.92;102504.94;5089323;28;20129;-76
2022/03/24 04:45:37;;;;;;;40.17;16.60;;;;;;;2.37;61.60;102502.22;5085217;28;20090;-76
2022/03/24 04:48:04;;;;;;;28.65;16.13;;;;;;;2.50;61.57;102506.69;5090774;28;20040;-77
2022/03/24 04:50:31;;;;;;;38.30;16.23;;;;;;;2.35;62.27;102506.53;5084144;28;20094;-77
2022/03/24 04:52:58;;;;;;;35.08;16.55;;;;;;;2.39;62.14;102508.31;5090221;28;20066;-77
2022/03/24 04:55:24;;;;;;;39.50;16.38;;;;;;;2.31;62.59;102503.06;5077763;28;20040;-77
2022/03/24 04:57:52;;;;;;;49.60;18.08;;;;;;;2.17;62.43;102498.59;5104112;28;21522;-77
2022/03/24 05:00:19;;;;;;;36.92;17.42;;;;;;;2.10;63.33;102499.38;5082208;28;20048;-77
2022/03/24 05:02:46;;;;;;;36.03;16.50;;;;;;;2.06;63.09;102493.28;5082333;28;20101;-77
2022/03/24 05:05:13;;;;;;;40.10;16.70;;;;;;;2.15;62.67;102502.84;5073942;28;20133;-77
2022/03/24 05:07:41;;;;;;;40.95;16.77;;;;;;;2.21;62.46;102509.00;5090983;28;20048;-77
2022/03/24 05:10:08;;;;;;;31.52;16.25;;;;;;;2.16;62.35;102502.00;5089028;28;20507;-77
2022/03/24 05:12:34;;;;;;;34.85;15.98;;;;;;;2.24;61.85;102498.66;5088137;28;20044;-77
2022/03/24 05:15:02;;;;;;;32.25;15.95;;;;;;;2.36;61.61;102508.28;5090441;28;20089;-77
2022/03/24 05:17:29;;;;;;;31.50;15.95;;;;;;;2.41;61.18;102504.88;5090059;28;20039;-77
2022/03/24 05:19:56;;;;;;;32.25;15.70;;;;;;;2.38;61.31;102510.03;5089942;28;20568;-77
2022/03/24 05:22:22;;;;;;;35.05;15.35;;;;;;;2.53;60.72;102508.44;5079128;28;20113;-77
2022/03/24 05:24:49;;;;;;;32.97;16.38;;;;;;;2.41;62.17;102517.81;5076147;28;20350;-77
2022/03/24 05:27:16;;;;;;;43.10;17.13;;;;;;;2.38;63.36;102506.56;5089297;28;20080;-77
2022/03/24 05:29:43;;;;;;;37.28;17.20;;;;;;;2.55;63.09;102509.34;5084304;28;20048;-77
2022/03/24 05:32:11;;;;;;;43.60;18.55;;;;;;;2.57;63.64;102511.06;5076962;28;20040;-78
2022/03/24 05:34:37;;;;;;;47.03;19.23;;;;;;;2.80;62.78;102512.16;5073830;28;20044;-78
2022/03/24 05:37:05;;;;;;;41.80;17.95;;;;;;;2.84;63.17;102502.69;5076933;28;20048;-78
2022/03/24 05:39:31;;;;;;;39.83;17.27;;;;;;;3.10;62.53;102508.94;5089376;28;20404;-78
2022/03/24 05:41:58;;;;;;;37.88;18.55;;;;;;;3.21;62.57;102504.69;5081472;28;20045;-78
2022/03/24 05:44:25;;;;;;;45.42;18.10;;;;;;;3.37;62.21;102506.50;5093727;28;20078;-78
2022/03/24 05:46:51;;;;;;;42.45;17.45;;;;;;;3.16;63.78;102505.50;5089558;28;20110;-79
2022/03/24 05:49:20;;;;;;;40.95;17.75;;;;;;;3.18;64.53;102507.22;5089460;28;20102;-79
2022/03/24 05:51:48;;;;;;;43.90;18.25;;;;;;;3.19;64.56;102500.31;5084705;28;20063;-79
2022/03/24 05:54:17;;;;;;;39.45;18.95;;;;;;;3.37;64.62;102511.69;5080064;28;20442;-79
2022/03/24 05:56:45;;;;;;;38.15;17.58;;;;;;;3.55;64.36;102510.91;5090040;28;20062;-79
2022/03/24 05:59:12;;;;;;;55.15;20.10;;;;;;;3.77;63.87;102510.16;5086641;28;20055;-79
2022/03/24 06:01:39;;;;;;;46.78;18.70;;;;;;;3.98;63.27;102508.53;5085019;28;20044;-79
2022/03/24 06:04:07;;;;;;;35.40;18.30;;;;;;;4.21;62.81;102514.66;5087395;28;20040;-79
2022/03/24 06:06:37;;;;;;;45.67;19.73;;;;;;;4.36;62.07;102510.34;5089252;28;20101;-79
2022/03/24 06:09:05;;;;;;;37.08;19.30;;;;;;;4.61;61.35;102513.00;5090100;28;20044;-79
2022/03/24 06:11:33;;;;;;;38.70;17.85;;;;;;;4.76;61.22;102510.41;5075618;28;20487;-79
2022/03/24 06:14:00;;;;;;;37.70;18.38;;;;;;;5.11;60.01;102515.56;5089743;28;20044;-80
2022/03/24 06:16:27;;;;;;;34.05;17.13;;;;;;;5.43;59.15;102519.03;5088046;28;20131;-80
2022/03/24 06:18:53;;;;;;;42.10;19.33;;;;;;;5.98;57.68;102511.91;5087628;28;20044;-80
2022/03/24 06:21:19;;;;;;;34.83;17.95;;;;;;;6.13;57.33;102511.84;5089175;28;20051;-79
2022/03/24 06:23:47;;;;;;;35.05;19.98;;;;;;;6.49;56.54;102507.28;5086248;27;20051;-79
2022/03/24 06:26:14;;;;;;;38.50;19.13;;;;;;;7.04;54.86;102519.00;5099096;27;20039;-79
2022/03/24 06:28:41;;;;;;;36.42;19.85;;;;;;;7.44;53.82;102514.25;5086798;28;20047;-78
2022/03/24 06:31:08;;;;;;;40.30;20.73;;;;;;;7.77;53.49;102508.66;5089699;28;20050;-79
2022/03/24 06:33:35;;;;;;;38.72;20.50;;;;;;;8.08;52.06;102511.75;5089434;28;20468;-79
2022/03/24 06:36:01;;;;;;;43.90;21.45;;;;;;;8.30;52.06;102517.59;5091992;28;20135;-79
2022/03/24 06:38:28;;;;;;;48.45;20.83;;;;;;;8.42;51.83;102516.56;5072902;28;20622;-80
2022/03/24 06:40:55;;;;;;;35.97;21.42;;;;;;;8.73;51.27;102518.66;5072856;28;20052;-79
2022/03/24 06:43:24;;;;;;;39.33;20.48;;;;;;;9.17;50.55;102514.44;5088803;28;20044;-80
2022/03/24 06:45:51;;;;;;;33.90;20.90;;;;;;;9.48;49.89;102519.97;5083054;28;20047;-71
2022/03/24 06:48:18;;;;;;;35.05;19.58;;;;;;;9.54;49.87;102514.63;5088478;28;20044;-70
2022/03/24 06:50:45;;;;;;;34.13;20.95;;;;;;;9.92;49.53;102521.72;5066054;28;20060;-70
2022/03/24 06:53:12;;;;;;;39.75;20.95;;;;;;;10.10;49.10;102521.34;5085223;28;20058;-71
2022/03/24 06:55:38;;;;;;;38.85;21.55;;;;;;;10.41;48.64;102518.94;5084132;28;20048;-69
2022/03/24 06:58:07;;;;;;;46.60;21.17;;;;;;;10.45;49.14;102520.59;5079535;28;20450;-69
2022/03/24 07:00:33;;;;;;;42.72;21.55;;;;;;;10.58;48.06;102514.16;5085633;28;20044;-69
2022/03/24 07:03:01;;;;;;;42.67;23.00;;;;;;;10.63;48.40;102513.16;5088183;28;20454;-69
2022/03/24 07:05:28;;;;;;;35.80;22.50;;;;;;;10.74;47.51;102516.41;5084664;28;20043;-69
2022/03/24 07:07:55;;;;;;;39.75;22.55;;;;;;;10.67;48.07;102520.06;5070324;28;20068;-69
2022/03/24 07:10:22;;;;;;;40.97;21.80;;;;;;;11.15;47.52;102515.34;5092630;28;20043;-70
2022/03/24 07:12:49;;;;;;;40.58;22.35;;;;;;;11.09;47.66;102509.38;5108766;28;20048;-70
2022/03/24 07:15:17;;;;;;;42.35;21.65;;;;;;;11.53;47.03;102519.56;5108021;28;20536;-69
2022/03/24 07:17:43;;;;;;;37.60;21.73;;;;;;;11.54;46.35;102518.69;5108373;28;20071;-70
2022/03/24 07:20:10;;;;;;;39.72;21.48;;;;;;;11.81;45.34;102524.97;5108431;28;20051;-71
2022/03/24 07:22:38;;;;;;;37.15;21.98;;;;;;;11.90;48.25;102519.44;5108309;28;20599;-72
2022/03/24 07:25:06;;;;;;;42.05;23.15;;;;;;;12.23;44.83;102530.75;5108390;28;20514;-71
2022/03/24 07:27:33;;;;;;;40.05;21.75;;;;;;;12.44;45.69;102521.31;5099300;28;20052;-71
2022/03/24 07:29:59;;;;;;;38.22;21.85;;;;;;;12.77;42.41;102524.66;5107782;28;20047;-71
2022/03/24 07:32:27;;;;;;;38.53;22.73;;;;;;;12.77;43.73;102533.41;5108574;28;20043;-71
2022/03/24 07:34:54;;;;;;;40.03;22.08;;;;;;;12.84;42.84;102528.81;5101958;28;20040;-71
2022/03/24 07:37:20;;;;;;;37.60;22.55;;;;;;;13.09;42.98;102527.97;5109646;28;20040;-71
2022/03/24 07:39:46;;;;;;;33.95;22.05;;;;;;;13.48;42.40;102528.38;5108343;28;20055;-71
2022/03/24 07:42:15;;;;;;;39.05;22.48;;;;;;;13.94;40.21;102529.31;5109416;28;20096;-71
2022/03/24 07:44:41;;;;;;;37.72;23.17;;;;;;;14.15;39.25;102524.09;5105543;27;20047;-71
2022/03/24 07:47:08;;;;;;;36.53;22.77;;;;;;;14.03;42.09;102529.84;5095999;28;20428;-71
2022/03/24 07:49:36;;;;;;;33.20;22.33;;;;;;;13.99;41.34;102530.88;5099244;28;20075;-71
2022/03/24 07:52:03;;;;;;;32.67;21.80;;;;;;;14.50;40.21;102530.69;5107954;28;20079;-71
2022/03/24 07:54:45;;;;;;;32.83;21.60;;;;;;;14.66;38.45;102530.94;5091909;28;20087;-71
2022/03/24 07:57:11;;;;;;;33.70;22.30;;;;;;;14.63;40.58;102531.06;5108752;28;20047;-71
2022/03/24 07:59:37;;;;;;;40.63;22.83;;;;;;;14.94;40.50;102528.00;5105058;28;20093;-71
2022/03/24 08:02:04;;;;;;;33.33;22.15;;;;;;;15.30;40.37;102529.09;5110939;28;20036;-70
2022/03/24 08:04:30;;;;;;;36.67;22.45;;;;;;;15.19;40.27;102523.41;5113009;27;20515;-70
2022/03/24 08:06:58;;;;;;;32.22;22.35;;;;;;;14.96;40.04;102529.69;5112074;28;20059;-70
2022/03/24 08:09:24;;;;;;;34.97;21.73;;;;;;;15.40;42.01;102534.88;5096843;28;20071;-71
2022/03/24 08:11:51;;;;;;;35.35;22.65;;;;;;;15.32;38.92;102532.56;5108050;28;20039;-71
2022/03/24 08:14:19;;;;;;;37.80;22.45;;;;;;;15.52;38.91;102521.97;5112091;27;20066;-71
2022/03/24 08:16:46;;;;;;;36.45;21.02;;;;;;;15.93;39.59;102535.13;5112054;27;20592;-70
2022/03/24 08:19:14;;;;;;;39.03;23.25;;;;;;;16.15;37.47;102535.03;5112135;27;20495;-71
2022/03/24 08:21:41;;;;;;;36.25;24.10;;;;;;;16.01;37.53;102527.72;5111999;27;20051;-70
2022/03/24 08:24:08;;;;;;;40.90;23.02;;;;;;;15.51;37.25;102536.16;5112219;28;20071;-70
2022/03/24 08:26:35;;;;;;;36.72;21.95;;;;;;;16.32;39.54;102529.78;5112911;27;20055;-71
2022/03/24 08:29:02;;;;;;;40.53;22.77;;;;;;;17.10;36.24;102521.56;5109560;27;20487;-71
2022/03/24 08:31:28;;;;;;;35.38;22.67;;;;;;;17.22;34.54;102516.47;5111566;27;20510;-71
2022/03/24 08:33:55;;;;;;;35.45;22.63;;;;;;;16.62;35.92;102531.00;5112012;27;20089;-71
2022/03/24 08:36:22;;;;;;;36.55;22.20;;;;;;;16.38;37.74;102524.19;5094537;28;20032;-71
2022/03/24 08:38:48;;;;;;;33.55;22.38;;;;;;;17.38;34.35;102516.53;5107161;28;20044;-71
2022/03/24 08:41:16;;;;;;;38.85;22.63;;;;;;;17.14;35.95;102525.78;5112629;27;20561;-71
2022/03/24 08:43:42;;;;;;;40.08;22.40;;;;;;;17.19;35.97;102521.06;5112998;27;20124;-71
2022/03/24 08:46:09;;;;;;;38.85;21.90;;;;;;;16.59;36.45;102541.75;5114327;27;20044;-71
2022/03/24 08:48:35;;;;;;;32.58;21.05;;;;;;;17.63;34.64;102532.06;5113095;27;20071;-71
2022/03/24 08:51:02;;;;;;;37.20;22.20;;;;;;;18.40;34.87;102541.94;5123040;28;20031;-71
2022/03/24 08:53:28;;;;;;;35.00;22.92;;;;;;;18.44;35.47;102535.50;5137880;28;20119;-71
2022/03/24 08:55:55;;;;;;;39.42;22.02;;;;;;;18.55;34.33;102536.75;5126346;28;20415;-71
2022/03/24 08:58:24;;;;;;;31.65;20.92;;;;;;;17.34;35.48;102541.50;5112205;28;20043;-70
2022/03/24 09:00:51;;;;;;;35.28;22.13;;;;;;;18.59;35.81;102539.13;5110820;28;20039;-70
2022/03/24 09:03:18;;;;;;;37.13;22.38;;;;;;;18.78;33.96;102530.97;5112175;27;20047;-70
2022/03/24 09:05:45;;;;;;;41.88;22.90;;;;;;;18.95;34.51;102533.53;5111252;27;20465;-70
2022/03/24 09:08:12;;;;;;;32.22;21.85;;;;;;;19.30;34.25;102529.63;5112845;27;20069;-71
2022/03/24 09:10:38;;;;;;;33.58;22.35;;;;;;;19.05;32.06;102540.00;5111385;27;20043;-71
2022/03/24 09:13:06;;;;;;;36.05;23.42;;;;;;;18.22;32.82;102540.31;5112667;27;20047;-71
2022/03/24 09:15:33;;;;;;;35.22;22.92;;;;;;;18.88;31.70;102534.81;5112501;28;20047;-71
2022/03/24 09:17:59;;;;;;;34.10;22.38;;;;;;;19.31;32.90;102536.66;5110650;28;20043;-71
2022/03/24 09:20:26;;;;;;;33.80;22.13;;;;;;;19.37;30.79;102536.28;5100511;28;20064;-71
2022/03/24 09:22:53;;;;;;;31.80;23.08;;;;;;;20.14;31.38;102538.59;5091537;28;20043;-71
2022/03/24 09:25:20;;;;;;;32.88;21.02;;;;;;;20.18;31.73;102540.13;5083366;28;20051;-71
2022/03/24 09:27:48;;;;;;;36.97;22.67;;;;;;;20.35;29.08;102544.44;5089505;28;20155;-71
2022/03/24 09:30:18;;;;;;;37.40;23.33;;;;;;;20.68;33.41;102536.91;5090254;28;20059;-71
2022/03/24 09:32:47;;;;;;;39.10;22.45;;;;;;;20.35;33.64;102539.97;5091415;28;20048;-71
2022/03/24 09:35:14;;;;;;;32.70;22.98;;;;;;;19.23;29.76;102540.72;5092018;28;20116;-71
2022/03/24 09:37:42;;;;;;;34.80;21.50;;;;;;;20.14;34.15;102538.59;5074684;28;20094;-71
2022/03/24 09:40:10;;;;;;;34.85;22.58;;;;;;;19.54;31.88;102542.44;5072128;28;20136;-70
2022/03/24 09:42:36;;;;;;;32.83;22.05;;;;;;;20.17;28.21;102538.44;5092276;28;20048;-71
2022/03/24 09:45:06;;;;;;;35.22;22.73;;;;;;;20.01;30.66;102537.69;5094348;28;20127;-71
2022/03/24 09:47:34;;;;;;;39.05;21.77;;;;;;;20.68;30.68;102541.38;5095815;28;20048;-71
2022/03/24 09:50:05;;;;;;;38.88;22.48;;;;;;;21.41;29.21;102531.97;5080852;28;20097;-71
2022/03/24 09:52:32;;;;;;;34.30;22.27;;;;;;;20.92;29.01;102538.88;5091563;28;20112;-71
2022/03/24 09:54:58;;;;;;;37.65;22.10;;;;;;;20.60;32.76;102541.88;5086448;28;20048;-71
2022/03/24 09:57:25;;;;;;;36.70;21.83;;;;;;;20.48;30.41;102533.81;5078029;28;20044;-71
2022/03/24 09:59:52;;;;;;;34.63;21.67;;;;;;;21.28;30.32;102529.31;5084263;28;20458;-71
2022/03/24 10:02:18;;;;;;;38.75;22.30;;;;;;;21.46;30.03;102524.50;5084828;28;20040;-71
2022/03/24 10:04:46;;;;;;;40.55;22.50;;;;;;;21.50;27.12;102526.00;5091481;28;20067;-71
2022/03/24 10:07:14;;;;;;;31.98;22.00;;;;;;;20.43;28.13;102534.13;5090443;28;20102;-70
2022/03/24 10:09:42;;;;;;;38.10;21.05;;;;;;;20.92;27.69;102515.75;5089361;28;20531;-70
2022/03/24 10:12:17;;;;;;;36.67;21.40;;;;;;;21.18;26.88;102509.53;5091652;28;20048;-70
2022/03/24 10:14:43;;;;;;;32.95;20.70;;;;;;;20.82;27.81;102514.66;5089779;28;20070;-70
2022/03/24 10:17:11;;;;;;;33.85;22.15;;;;;;;20.68;28.43;102522.72;5090401;28;20040;-70
2022/03/24 10:19:38;;;;;;;35.40;21.13;;;;;;;20.62;31.13;102523.13;5089565;28;20044;-71
2022/03/24 10:22:09;;;;;;;32.63;21.67;;;;;;;20.04;30.64;102524.16;5090110;28;20040;-70
2022/03/24 10:24:41;;;;;;;35.72;20.92;;;;;;;20.29;30.44;102529.66;5088159;28;20449;-70
2022/03/24 10:27:08;;;;;;;36.35;22.65;;;;;;;19.72;28.43;102520.00;5084804;28;20137;-70
2022/03/24 10:29:36;;;;;;;36.60;21.55;;;;;;;19.46;29.72;102510.09;5088840;28;20043;-70
2022/03/24 10:32:04;;;;;;;34.67;21.50;;;;;;;19.82;29.56;102518.47;5090089;28;20067;-71
2022/03/24 10:34:33;;;;;;;38.38;21.20;;;;;;;18.19;30.04;102521.88;5088482;28;20056;-70
2022/03/24 10:37:05;;;;;;;41.28;22.13;;;;;;;18.46;33.36;102520.34;5093524;28;20059;-70
2022/03/24 10:39:32;;;;;;;36.42;19.60;;;;;;;19.35;32.43;102519.56;5083633;28;20492;-70
2022/03/24 10:42:14;;;;;;;34.17;19.85;;;;;;;20.42;34.51;102516.44;5090124;28;20063;-70
2022/03/24 10:45:06;;;;;;;33.90;18.67;;;;;;;20.15;26.99;102512.84;5089393;28;20058;-70
2022/03/24 10:47:37;;;;;;;39.03;17.17;;;;;;;21.28;29.66;102504.44;5110277;27;20560;-71
2022/03/24 10:50:26;;;;;;;34.92;18.65;;;;;;;21.31;30.37;102502.41;5109300;28;20518;-70
2022/03/24 10:52:54;;;;;;;35.13;18.60;;;;;;;21.14;27.23;102491.16;5109903;27;20487;-70
2022/03/24 10:55:27;;;;;;;34.85;18.63;;;;;;;20.92;31.52;102494.41;5109767;28;20146;-70
2022/03/24 10:57:57;;;;;;;37.40;20.10;;;;;;;21.25;29.97;102494.81;5102539;28;20097;-70
2022/03/24 11:00:24;;;;;;;31.00;18.85;;;;;;;20.68;27.88;102496.91;5107089;28;20051;-71
2022/03/24 11:02:50;;;;;;;32.83;20.15;;;;;;;21.08;27.64;102481.75;5109616;28;20132;-71
2022/03/24 11:05:17;;;;;;;34.53;19.33;;;;;;;21.25;29.65;102491.28;5109769;27;20414;-70
2022/03/24 11:07:51;;;;;;;30.20;18.83;;;;;;;21.94;30.48;102490.88;5108902;27;20119;-70
2022/03/24 11:10:18;;;;;;;36.95;19.50;;;;;;;22.35;28.20;102482.50;5108717;28;20238;-70
2022/03/24 11:12:44;;;;;;;29.92;18.27;;;;;;;22.46;25.99;102479.03;5109425;28;20453;-71
2022/03/24 11:15:12;;;;;;;27.73;17.75;;;;;;;22.56;26.78;102488.06;5109484;28;20096;-71